Aérodrome :
LOGIN :

S'inscrire | Disclaimer

   EN    FR    IT 

 










Légende :    VFR   VFR Marginal   IFR   IFR Intensif   IFR Très Intensif
Visi : 
Plafond : 
>= 8 km
>= 3000ft
5 à 8 km
1000 à 3000 ft
1500m à 5 km
500 à 1000 ft
800 à 1500m
200 à 500 ft
< 800m
< 200 ft
Symboles :   Orages  Brouillard  Fortes neiges  Fortes précipitations  Vent > 20 kt
SIGMETs :   Divers  Orages  Givrage  Turbulence  Onde Orograph.  Cendres Volcan.







- Altitude de l'aérodrome : 375 ft
- Code IATA : MST


EHBK - Maastricht Aachen

DERNIER METAR :
  • 230125Z AUTO 21009KT 9999 FEW015CB 16/13 Q1013

METARs EXPIRÉS :
  • 230055Z AUTO 20008KT 9999 NSC 15/14 Q1012
  • 230025Z AUTO 20007KT 9999 NSC 15/13 Q1012
  • 222355Z AUTO 19008KT 9999 NSC 16/13 Q1012
  • 222325Z AUTO 20008KT 9999 -DZ TS FEW016CB 17/13 Q1013
  • 222255Z AUTO 27004KT 210V310 9999 -RA NSC 18/12 Q1012

TAF TAF EHBK
Valide du 23 à 00h jusqu'au 24 à 06h UTC


222302Z 2300/2406 23005KT 9999 SCT035
PROB30
TEMPO 2300/2303 4500 RA SHRA SCT050CB
BECMG 2303/2305 26010KT
BECMG 2307/2310 27012G22KT
BECMG 2317/2319 VRB03KT
BECMG 2400/2403 23010KT
Pas de NOTAMs connus pour ce terrain.



MET'MAP, la Météo Aéronautique d'un coup d'oeil ! - Copyright ORBIFLY Décembre 2007 - Disclaimer

ORBIFLY MET'MAP TEAM :

Programmation & Développement : Alexandra Zaïnal
Conception & Développement : Baudouin d'Aumeries
Co-Programmation & Développement : Marc-Olivier Méhu
Soutien technique & logistique : Manuel Goepfert

Contact : metmap@orbifly.com




SOURCES & CREDITS :

   NOAA